Time;durP1;ratioP1;P1;durP2;ratioP2;P2;SDS_P1;SDS_P2;PMS_P1;PMS_P2;Temp;Humidity;BMP_temperature;BMP_pressure;BME280_temperature;BME280_humidity;BME280_pressure;Samples;Min_cycle;Max_cycle;Signal;HPM_P1;HPM_P2
2023/08/30 00:00:21;;;;;;;30.47;28.37;;;;;;;;;;5095103;28;20456;-76
2023/08/30 00:02:50;;;;;;;33.60;31.20;;;;;;;;;;5097424;28;20448;-76
2023/08/30 00:05:18;;;;;;;32.10;30.00;;;;;;;;;;5094489;28;20448;-76
2023/08/30 00:07:45;;;;;;;30.47;28.37;;;;;;;;;;5094646;28;20419;-76
2023/08/30 00:10:12;;;;;;;30.90;28.47;;;;;;;;;;5093633;28;20448;-77
2023/08/30 00:12:39;;;;;;;32.87;30.37;;;;;;;;;;5094747;28;20469;-76
2023/08/30 00:15:09;;;;;;;30.83;28.50;;;;;;;;;;5095407;28;20423;-76
2023/08/30 00:17:36;;;;;;;32.40;30.20;;;;;;;;;;5095563;28;20487;-77
2023/08/30 00:20:03;;;;;;;30.90;28.90;;;;;;;;;;5093650;28;20454;-77
2023/08/30 00:22:31;;;;;;;31.23;29.03;;;;;;;;;;5094484;28;20451;-76
2023/08/30 00:24:58;;;;;;;31.80;29.00;;;;;;;;;;5094516;28;20807;-78
2023/08/30 00:27:25;;;;;;;32.60;29.93;;;;;;;;;;5094557;28;20465;-77
2023/08/30 00:29:52;;;;;;;29.37;27.47;;;;;;;;;;5092989;28;20445;-76
2023/08/30 00:32:21;;;;;;;31.83;29.73;;;;;;;;;;5094707;28;20435;-76
2023/08/30 00:34:48;;;;;;;33.03;30.53;;;;;;;;;;5093523;28;20800;-77
2023/08/30 00:37:15;;;;;;;30.33;28.33;;;;;;;;;;5094000;28;20463;-77
2023/08/30 00:39:42;;;;;;;31.17;29.07;;;;;;;;;;5092178;28;20468;-76
2023/08/30 00:42:09;;;;;;;33.13;30.63;;;;;;;;;;5093970;28;20448;-76
2023/08/30 00:44:36;;;;;;;32.17;29.77;;;;;;;;;;5094605;28;20461;-76
2023/08/30 00:47:03;;;;;;;30.47;28.30;;;;;;;;;;5093675;28;20916;-77
2023/08/30 00:49:32;;;;;;;31.43;29.23;;;;;;;;;;5093709;28;20457;-77
2023/08/30 00:52:00;;;;;;;29.80;27.60;;;;;;;;;;5093083;28;20419;-78
2023/08/30 00:54:27;;;;;;;32.80;30.50;;;;;;;;;;5094104;28;20431;-77
2023/08/30 00:56:55;;;;;;;31.80;29.60;;;;;;;;;;5093660;28;20429;-76
2023/08/30 00:59:23;;;;;;;32.00;29.70;;;;;;;;;;5093809;28;20484;-76
2023/08/30 01:01:50;;;;;;;30.80;28.70;;;;;;;;;;5092723;28;20508;-77
2023/08/30 01:04:18;;;;;;;32.00;29.50;;;;;;;;;;5093408;28;20420;-77
2023/08/30 01:06:48;;;;;;;32.07;29.70;;;;;;;;;;5093724;28;20414;-79
2023/08/30 01:09:16;;;;;;;32.33;29.80;;;;;;;;;;5097183;28;20452;-76
2023/08/30 01:11:45;;;;;;;31.37;29.10;;;;;;;;;;5095112;28;20949;-76
2023/08/30 01:14:15;;;;;;;31.63;29.13;;;;;;;;;;5098902;28;20783;-78
2023/08/30 01:16:43;;;;;;;32.83;29.90;;;;;;;;;;5094133;28;20445;-76
2023/08/30 01:19:20;;;;;;;29.53;27.57;;;;;;;;;;5093188;28;20537;-76
2023/08/30 01:21:50;;;;;;;29.70;27.60;;;;;;;;;;5093072;28;20407;-77
2023/08/30 01:24:25;;;;;;;28.77;26.97;;;;;;;;;;5093263;28;20404;-79
2023/08/30 01:27:00;;;;;;;31.13;28.93;;;;;;;;;;5092369;28;20817;-77
2023/08/30 01:29:28;;;;;;;30.53;28.43;;;;;;;;;;5093466;28;21189;-77
2023/08/30 01:31:56;;;;;;;31.07;28.97;;;;;;;;;;5091861;28;20419;-77
2023/08/30 01:34:23;;;;;;;31.70;29.43;;;;;;;;;;5093267;28;20456;-78
2023/08/30 01:36:50;;;;;;;31.20;29.00;;;;;;;;;;5092926;28;20915;-77
2023/08/30 01:39:18;;;;;;;31.00;28.80;;;;;;;;;;5091851;28;20462;-77
2023/08/30 01:41:45;;;;;;;28.57;26.73;;;;;;;;;;5092510;28;20408;-77
2023/08/30 01:44:16;;;;;;;29.87;27.77;;;;;;;;;;5093216;28;20453;-77
2023/08/30 01:46:43;;;;;;;30.00;27.63;;;;;;;;;;5092886;28;20407;-77
2023/08/30 01:49:10;;;;;;;30.60;28.50;;;;;;;;;;5092882;28;20415;-77
2023/08/30 01:51:38;;;;;;;30.87;28.60;;;;;;;;;;5092169;28;20440;-78
2023/08/30 01:54:06;;;;;;;30.47;28.03;;;;;;;;;;5092799;28;20797;-76
2023/08/30 01:56:33;;;;;;;30.23;28.03;;;;;;;;;;5092640;28;20419;-77
2023/08/30 01:59:00;;;;;;;29.60;27.50;;;;;;;;;;5092721;28;20466;-77
2023/08/30 02:01:28;;;;;;;30.00;27.80;;;;;;;;;;5091684;28;20452;-77
2023/08/30 02:03:55;;;;;;;28.73;26.83;;;;;;;;;;5091970;28;21010;-77
2023/08/30 02:06:25;;;;;;;28.70;26.90;;;;;;;;;;5092100;28;20419;-77
2023/08/30 02:08:54;;;;;;;28.50;26.60;;;;;;;;;;5092158;28;20411;-78
2023/08/30 02:11:24;;;;;;;28.57;26.57;;;;;;;;;;5091467;28;20423;-77
2023/08/30 02:13:52;;;;;;;29.80;27.80;;;;;;;;;;5092094;28;20461;-77
2023/08/30 02:16:19;;;;;;;29.60;27.50;;;;;;;;;;5092128;28;20809;-76
2023/08/30 02:18:48;;;;;;;28.90;26.90;;;;;;;;;;5092286;28;20472;-76
2023/08/30 02:21:15;;;;;;;28.23;26.23;;;;;;;;;;5091425;28;20453;-77
2023/08/30 02:23:42;;;;;;;27.97;26.00;;;;;;;;;;5092059;28;20439;-78
2023/08/30 02:26:09;;;;;;;30.40;27.80;;;;;;;;;;5092071;28;20419;-77
2023/08/30 02:28:38;;;;;;;28.30;26.30;;;;;;;;;;5092289;28;20423;-77
2023/08/30 02:31:05;;;;;;;28.93;26.93;;;;;;;;;;5091366;28;20434;-78
2023/08/30 02:33:32;;;;;;;27.40;25.50;;;;;;;;;;5092024;28;20435;-77
2023/08/30 02:36:01;;;;;;;30.10;27.63;;;;;;;;;;5091974;28;20427;-78
2023/08/30 02:38:28;;;;;;;28.60;26.60;;;;;;;;;;5094502;28;20455;-77
2023/08/30 02:40:55;;;;;;;28.40;26.37;;;;;;;;;;5095473;28;20436;-77
2023/08/30 02:43:22;;;;;;;27.80;25.80;;;;;;;;;;5095966;28;20457;-78
2023/08/30 02:45:49;;;;;;;28.20;26.40;;;;;;;;;;5096033;28;20427;-78
2023/08/30 02:48:16;;;;;;;29.30;27.20;;;;;;;;;;5095946;28;20441;-78
2023/08/30 02:50:43;;;;;;;28.30;26.50;;;;;;;;;;5095326;28;20452;-77
2023/08/30 02:53:12;;;;;;;29.13;27.13;;;;;;;;;;5095834;28;20461;-76
2023/08/30 02:55:39;;;;;;;29.70;27.40;;;;;;;;;;5095976;28;20412;-78
2023/08/30 02:58:06;;;;;;;27.93;26.07;;;;;;;;;;5098287;28;20488;-77
2023/08/30 03:00:34;;;;;;;28.70;26.70;;;;;;;;;;5094822;28;20959;-78
2023/08/30 03:03:02;;;;;;;29.23;27.13;;;;;;;;;;5095760;28;20476;-77
2023/08/30 03:05:29;;;;;;;29.27;27.27;;;;;;;;;;5095655;28;20435;-77
2023/08/30 03:07:56;;;;;;;29.57;27.67;;;;;;;;;;5095751;28;20478;-78
2023/08/30 03:10:24;;;;;;;28.40;26.40;;;;;;;;;;5095376;28;20468;-77
2023/08/30 03:12:51;;;;;;;28.70;26.70;;;;;;;;;;5095502;28;20446;-78
2023/08/30 03:15:19;;;;;;;27.83;25.93;;;;;;;;;;5095226;28;20963;-77
2023/08/30 03:17:46;;;;;;;29.17;27.23;;;;;;;;;;5095236;28;20463;-77
2023/08/30 03:20:13;;;;;;;29.80;27.73;;;;;;;;;;5094897;28;20415;-77
2023/08/30 03:22:40;;;;;;;29.53;27.53;;;;;;;;;;5095411;28;20460;-76
2023/08/30 03:25:09;;;;;;;28.67;26.67;;;;;;;;;;5095338;28;20448;-77
2023/08/30 03:27:37;;;;;;;30.10;27.50;;;;;;;;;;5095555;28;20506;-77
2023/08/30 03:30:06;;;;;;;30.63;28.53;;;;;;;;;;5094401;28;20930;-77
2023/08/30 03:32:33;;;;;;;28.80;26.80;;;;;;;;;;5095273;28;20496;-77
2023/08/30 03:35:00;;;;;;;27.90;26.00;;;;;;;;;;5095041;28;20557;-76
2023/08/30 03:37:27;;;;;;;27.87;25.77;;;;;;;;;;5094823;28;21171;-78
2023/08/30 03:39:54;;;;;;;28.43;26.53;;;;;;;;;;5093965;28;20487;-77
2023/08/30 03:42:21;;;;;;;28.10;26.30;;;;;;;;;;5095045;28;20472;-77
2023/08/30 03:44:50;;;;;;;28.37;26.37;;;;;;;;;;5095000;28;20443;-78
2023/08/30 03:47:17;;;;;;;29.40;27.40;;;;;;;;;;5095301;28;20415;-78
2023/08/30 03:49:45;;;;;;;29.27;27.37;;;;;;;;;;5093295;28;20435;-78
2023/08/30 03:52:12;;;;;;;29.10;27.17;;;;;;;;;;5094811;28;20965;-77
2023/08/30 03:54:39;;;;;;;30.40;28.20;;;;;;;;;;5094558;28;20518;-78
2023/08/30 03:57:06;;;;;;;30.07;27.97;;;;;;;;;;5094734;28;20452;-78
2023/08/30 03:59:33;;;;;;;30.90;28.80;;;;;;;;;;5094982;28;20485;-77
2023/08/30 04:02:02;;;;;;;29.13;27.23;;;;;;;;;;5093466;28;20427;-78
2023/08/30 04:04:29;;;;;;;28.50;26.47;;;;;;;;;;5094679;28;20411;-77
2023/08/30 04:06:56;;;;;;;30.30;28.10;;;;;;;;;;5094754;28;20427;-77
2023/08/30 04:09:23;;;;;;;30.80;28.60;;;;;;;;;;5094392;28;20442;-77
2023/08/30 04:11:51;;;;;;;28.03;26.17;;;;;;;;;;5093725;28;20930;-78
2023/08/30 04:14:18;;;;;;;29.23;27.23;;;;;;;;;;5094656;28;20423;-77
2023/08/30 04:16:45;;;;;;;29.33;27.23;;;;;;;;;;5095154;28;20459;-77
2023/08/30 04:19:14;;;;;;;29.40;27.20;;;;;;;;;;5095059;28;20834;-77
2023/08/30 04:21:41;;;;;;;28.37;26.40;;;;;;;;;;5094659;28;20448;-77
2023/08/30 04:24:08;;;;;;;32.37;29.77;;;;;;;;;;5094952;28;20439;-77
2023/08/30 04:26:35;;;;;;;29.83;27.80;;;;;;;;;;5094465;28;20427;-77
2023/08/30 04:29:03;;;;;;;30.23;28.23;;;;;;;;;;5094880;28;20490;-77
2023/08/30 04:31:30;;;;;;;30.17;28.00;;;;;;;;;;5093762;28;20481;-77
2023/08/30 04:33:57;;;;;;;29.83;27.73;;;;;;;;;;5094011;28;20446;-77
2023/08/30 04:36:25;;;;;;;28.53;26.53;;;;;;;;;;5094138;28;20420;-78
2023/08/30 04:38:53;;;;;;;30.80;28.40;;;;;;;;;;5093909;28;20861;-76
2023/08/30 04:41:20;;;;;;;29.27;27.20;;;;;;;;;;5093185;28;20408;-77
2023/08/30 04:43:47;;;;;;;30.37;28.20;;;;;;;;;;5093229;28;20474;-77
2023/08/30 04:46:14;;;;;;;30.10;27.80;;;;;;;;;;5100873;28;20420;-76
2023/08/30 04:48:41;;;;;;;30.30;28.00;;;;;;;;;;5101440;28;20832;-78
2023/08/30 04:51:08;;;;;;;29.90;27.80;;;;;;;;;;5094543;28;20416;-78
2023/08/30 04:53:37;;;;;;;30.70;28.70;;;;;;;;;;5094401;28;20977;-77
2023/08/30 04:56:11;;;;;;;29.90;27.70;;;;;;;;;;5095186;28;20493;-78
2023/08/30 04:58:39;;;;;;;30.77;28.37;;;;;;;;;;5093797;28;20973;-78
2023/08/30 05:01:06;;;;;;;30.03;27.83;;;;;;;;;;5092382;28;20463;-77
2023/08/30 05:03:34;;;;;;;30.27;27.97;;;;;;;;;;5093365;28;20462;-77
2023/08/30 05:06:01;;;;;;;27.90;25.90;;;;;;;;;;5092948;28;20503;-79
2023/08/30 05:08:28;;;;;;;28.80;26.63;;;;;;;;;;5093241;28;20411;-77
2023/08/30 05:10:56;;;;;;;28.87;26.97;;;;;;;;;;5092015;28;20441;-78
2023/08/30 05:13:23;;;;;;;29.77;27.50;;;;;;;;;;5092362;28;20451;-78
2023/08/30 05:15:50;;;;;;;29.20;27.20;;;;;;;;;;5092107;28;20497;-77
2023/08/30 05:18:17;;;;;;;29.70;27.60;;;;;;;;;;5092154;28;20473;-78
2023/08/30 05:20:44;;;;;;;28.60;26.60;;;;;;;;;;5092702;28;20440;-78
2023/08/30 05:23:11;;;;;;;30.03;27.67;;;;;;;;;;5093401;28;20443;-77
2023/08/30 05:25:38;;;;;;;31.93;29.63;;;;;;;;;;5093839;28;20444;-77
2023/08/30 05:28:07;;;;;;;29.77;27.67;;;;;;;;;;5094235;28;20487;-77
2023/08/30 05:30:34;;;;;;;29.67;27.67;;;;;;;;;;5095075;28;20431;-77
2023/08/30 05:33:02;;;;;;;30.87;28.63;;;;;;;;;;5093554;28;20464;-78
2023/08/30 05:35:29;;;;;;;31.13;28.77;;;;;;;;;;5093841;28;20427;-77
2023/08/30 05:37:56;;;;;;;29.57;27.37;;;;;;;;;;5093491;28;20439;-76
2023/08/30 05:40:24;;;;;;;32.30;29.73;;;;;;;;;;5092750;28;20518;-77
2023/08/30 05:42:51;;;;;;;29.37;27.37;;;;;;;;;;5093280;28;20561;-77
2023/08/30 05:45:20;;;;;;;32.57;30.07;;;;;;;;;;5092700;28;20417;-78
2023/08/30 05:47:47;;;;;;;32.43;30.00;;;;;;;;;;5092658;28;20457;-77
2023/08/30 05:50:14;;;;;;;32.53;30.23;;;;;;;;;;5091925;28;20459;-77
2023/08/30 05:52:44;;;;;;;30.87;28.57;;;;;;;;;;5092165;28;20477;-77
2023/08/30 05:55:11;;;;;;;31.83;29.53;;;;;;;;;;5092306;28;20453;-78
2023/08/30 05:57:38;;;;;;;31.67;29.10;;;;;;;;;;5093739;28;20419;-78
2023/08/30 06:00:06;;;;;;;31.80;29.40;;;;;;;;;;5091661;28;20463;-77
2023/08/30 06:02:35;;;;;;;32.30;29.70;;;;;;;;;;5092406;28;20468;-77
2023/08/30 06:05:02;;;;;;;30.50;28.30;;;;;;;;;;5092604;28;20833;-77
2023/08/30 06:07:29;;;;;;;31.80;29.57;;;;;;;;;;5092127;28;20531;-77
2023/08/30 06:09:56;;;;;;;34.53;31.83;;;;;;;;;;5091480;28;20929;-76
2023/08/30 06:12:25;;;;;;;34.90;32.30;;;;;;;;;;5091918;28;20468;-77
2023/08/30 06:14:52;;;;;;;32.53;30.03;;;;;;;;;;5092373;28;20453;-77
2023/08/30 06:17:19;;;;;;;34.67;31.77;;;;;;;;;;5092188;28;20843;-77
2023/08/30 06:19:48;;;;;;;33.83;31.00;;;;;;;;;;5091096;28;20996;-77
2023/08/30 06:22:15;;;;;;;33.23;30.60;;;;;;;;;;5091815;28;20470;-77
2023/08/30 06:24:42;;;;;;;33.53;31.13;;;;;;;;;;5092099;28;20495;-77
2023/08/30 06:27:09;;;;;;;32.37;30.00;;;;;;;;;;5091762;28;20452;-77
2023/08/30 06:29:36;;;;;;;33.60;31.10;;;;;;;;;;5092254;28;20449;-78
2023/08/30 06:32:03;;;;;;;33.60;31.00;;;;;;;;;;5092020;28;20424;-77
2023/08/30 06:34:30;;;;;;;31.73;29.43;;;;;;;;;;5092355;28;20460;-78
2023/08/30 06:36:59;;;;;;;33.87;31.03;;;;;;;;;;5091341;28;20455;-77
2023/08/30 06:39:26;;;;;;;33.67;30.90;;;;;;;;;;5092005;28;20855;-78
2023/08/30 06:41:53;;;;;;;33.03;30.43;;;;;;;;;;5091347;28;20423;-78
2023/08/30 06:44:21;;;;;;;36.57;33.43;;;;;;;;;;5092008;28;20493;-77
2023/08/30 06:46:48;;;;;;;33.47;30.53;;;;;;;;;;5092102;28;20423;-78
2023/08/30 06:49:15;;;;;;;33.67;31.07;;;;;;;;;;5092258;28;20426;-77
2023/08/30 06:51:43;;;;;;;33.07;30.33;;;;;;;;;;5091471;28;20453;-77
2023/08/30 06:54:11;;;;;;;32.67;30.20;;;;;;;;;;5092174;28;20547;-78
2023/08/30 06:56:38;;;;;;;32.87;30.27;;;;;;;;;;5092090;28;20419;-77
2023/08/30 06:59:05;;;;;;;32.03;29.63;;;;;;;;;;5091905;28;20824;-77
2023/08/30 07:01:32;;;;;;;33.70;31.10;;;;;;;;;;5090948;28;20439;-78
2023/08/30 07:03:59;;;;;;;33.53;30.93;;;;;;;;;;5091915;28;20467;-77
2023/08/30 07:06:29;;;;;;;33.20;30.70;;;;;;;;;;5091797;28;20434;-76
2023/08/30 07:08:56;;;;;;;33.83;31.33;;;;;;;;;;5091793;28;20503;-77
2023/08/30 07:11:25;;;;;;;32.40;29.97;;;;;;;;;;5090959;28;20494;-77
2023/08/30 07:13:52;;;;;;;34.93;32.13;;;;;;;;;;5091711;28;20443;-78
2023/08/30 07:16:19;;;;;;;37.63;34.20;;;;;;;;;;5098855;28;20444;-77
2023/08/30 07:18:46;;;;;;;33.20;30.87;;;;;;;;;;5092252;28;20419;-77
2023/08/30 07:21:13;;;;;;;33.07;30.53;;;;;;;;;;5093183;28;20425;-77
2023/08/30 07:23:40;;;;;;;35.83;33.13;;;;;;;;;;5092972;28;20439;-77
2023/08/30 07:26:07;;;;;;;34.93;32.23;;;;;;;;;;5095041;28;20473;-77
2023/08/30 07:28:35;;;;;;;39.23;36.03;;;;;;;;;;5095063;28;20505;-77
2023/08/30 07:31:06;;;;;;;37.37;34.40;;;;;;;;;;5094701;28;20419;-77
2023/08/30 07:33:33;;;;;;;35.03;32.30;;;;;;;;;;5095533;28;20806;-78
2023/08/30 07:36:00;;;;;;;37.77;34.87;;;;;;;;;;5093893;28;20419;-77
2023/08/30 07:38:27;;;;;;;35.93;33.13;;;;;;;;;;5095282;28;20468;-77
2023/08/30 07:40:55;;;;;;;35.77;33.07;;;;;;;;;;5094276;28;20459;-77
2023/08/30 07:43:22;;;;;;;38.57;35.27;;;;;;;;;;5095121;28;20439;-77
2023/08/30 07:45:50;;;;;;;39.93;36.57;;;;;;;;;;5095354;28;20485;-77
2023/08/30 07:48:17;;;;;;;42.03;38.13;;;;;;;;;;5094973;28;20420;-77
2023/08/30 07:50:44;;;;;;;40.50;36.93;;;;;;;;;;5094512;28;20420;-78
2023/08/30 07:53:12;;;;;;;39.87;36.43;;;;;;;;;;5095571;28;20796;-78
2023/08/30 07:55:40;;;;;;;38.00;34.80;;;;;;;;;;5095231;28;20413;-78
2023/08/30 07:58:08;;;;;;;38.33;35.23;;;;;;;;;;5094793;28;20495;-77
2023/08/30 08:00:36;;;;;;;37.93;34.77;;;;;;;;;;5093866;28;20488;-77
2023/08/30 08:03:04;;;;;;;41.63;37.90;;;;;;;;;;5094984;28;20448;-77
2023/08/30 08:05:32;;;;;;;38.40;35.20;;;;;;;;;;5094659;28;20451;-77
2023/08/30 08:08:01;;;;;;;42.43;38.67;;;;;;;;;;5094778;28;20437;-77
2023/08/30 08:10:28;;;;;;;41.47;37.60;;;;;;;;;;5094354;28;20468;-76
2023/08/30 08:12:55;;;;;;;39.53;36.07;;;;;;;;;;5094512;28;20496;-78
2023/08/30 08:15:22;;;;;;;39.20;35.90;;;;;;;;;;5096488;28;20424;-78
2023/08/30 08:17:49;;;;;;;41.20;37.80;;;;;;;;;;5095790;28;20779;-77
2023/08/30 08:20:17;;;;;;;41.70;38.10;;;;;;;;;;5094559;28;20567;-77
2023/08/30 08:22:45;;;;;;;41.67;38.00;;;;;;;;;;5093983;28;20450;-77
2023/08/30 08:25:12;;;;;;;42.33;38.83;;;;;;;;;;5093890;28;20456;-77
2023/08/30 08:27:39;;;;;;;42.33;38.80;;;;;;;;;;5093903;28;20459;-77
2023/08/30 08:30:07;;;;;;;42.90;39.20;;;;;;;;;;5093480;28;20419;-77
2023/08/30 08:32:34;;;;;;;43.30;39.20;;;;;;;;;;5094282;28;20461;-77
2023/08/30 08:35:01;;;;;;;44.57;40.60;;;;;;;;;;5093842;28;20502;-77
2023/08/30 08:37:29;;;;;;;45.77;41.90;;;;;;;;;;5093014;28;20448;-77
2023/08/30 08:39:56;;;;;;;43.23;39.37;;;;;;;;;;5093523;28;20469;-77
2023/08/30 08:42:23;;;;;;;43.60;39.60;;;;;;;;;;5094216;28;20538;-77
2023/08/30 08:44:52;;;;;;;43.20;39.13;;;;;;;;;;5098131;28;20448;-78
2023/08/30 08:47:21;;;;;;;41.50;37.57;;;;;;;;;;5095473;28;20480;-78
2023/08/30 08:49:48;;;;;;;39.67;36.27;;;;;;;;;;5092854;28;20975;-77
2023/08/30 08:52:15;;;;;;;40.27;36.87;;;;;;;;;;5093410;28;20471;-78
2023/08/30 08:54:44;;;;;;;40.03;36.53;;;;;;;;;;5093293;28;20503;-77
2023/08/30 08:57:11;;;;;;;39.37;35.17;;;;;;;;;;5093309;28;20423;-77
2023/08/30 08:59:38;;;;;;;41.73;38.03;;;;;;;;;;5093331;28;20451;-78
2023/08/30 09:02:06;;;;;;;40.27;36.77;;;;;;;;;;5092871;28;20438;-77
2023/08/30 09:04:33;;;;;;;41.00;37.57;;;;;;;;;;5093547;28;20440;-77
2023/08/30 09:07:00;;;;;;;40.93;37.33;;;;;;;;;;5093581;28;20435;-77
2023/08/30 09:09:28;;;;;;;40.30;36.87;;;;;;;;;;5093318;28;21058;-77
2023/08/30 09:11:56;;;;;;;42.40;38.30;;;;;;;;;;5092421;28;20919;-77
2023/08/30 09:14:23;;;;;;;42.47;38.47;;;;;;;;;;5093364;28;20481;-77
2023/08/30 09:16:56;;;;;;;40.87;37.40;;;;;;;;;;5093530;28;20452;-77
2023/08/30 09:19:24;;;;;;;39.23;35.87;;;;;;;;;;5093162;28;20431;-77
2023/08/30 09:21:54;;;;;;;41.93;38.43;;;;;;;;;;5093003;28;20420;-78
2023/08/30 09:24:21;;;;;;;39.17;35.97;;;;;;;;;;5093051;28;20453;-77
2023/08/30 09:26:49;;;;;;;41.27;37.67;;;;;;;;;;5093165;28;20419;-78
2023/08/30 09:29:18;;;;;;;41.90;37.97;;;;;;;;;;5093084;28;20424;-78
2023/08/30 09:31:45;;;;;;;40.73;37.43;;;;;;;;;;5092499;28;20437;-77
2023/08/30 09:34:12;;;;;;;42.20;38.63;;;;;;;;;;5092986;28;20415;-77
2023/08/30 09:36:40;;;;;;;40.00;36.50;;;;;;;;;;5092258;28;20419;-77
2023/08/30 09:39:07;;;;;;;35.67;32.77;;;;;;;;;;5092684;28;20411;-78
2023/08/30 09:41:34;;;;;;;39.50;36.23;;;;;;;;;;5091814;28;20466;-78
2023/08/30 09:44:07;;;;;;;38.20;35.07;;;;;;;;;;5092446;28;21003;-78
2023/08/30 09:46:41;;;;;;;37.27;34.27;;;;;;;;;;5092062;28;20447;-77
2023/08/30 09:49:08;;;;;;;36.53;33.63;;;;;;;;;;5092830;28;20408;-76
2023/08/30 09:51:36;;;;;;;32.83;30.40;;;;;;;;;;5092265;28;20411;-77
2023/08/30 09:54:06;;;;;;;35.70;32.90;;;;;;;;;;5092738;28;20461;-77
2023/08/30 09:56:34;;;;;;;35.40;32.70;;;;;;;;;;5092239;28;20411;-78
2023/08/30 09:59:01;;;;;;;34.10;31.60;;;;;;;;;;5092397;28;20419;-77
2023/08/30 10:01:28;;;;;;;34.07;31.57;;;;;;;;;;5091567;28;20466;-77
2023/08/30 10:03:58;;;;;;;36.00;33.30;;;;;;;;;;5092120;28;20435;-77
2023/08/30 10:06:25;;;;;;;34.80;32.20;;;;;;;;;;5092347;28;20423;-78
2023/08/30 10:08:53;;;;;;;35.27;32.60;;;;;;;;;;5092277;28;20513;-78
2023/08/30 10:11:21;;;;;;;34.40;31.80;;;;;;;;;;5091405;28;20498;-78
2023/08/30 10:13:48;;;;;;;32.90;30.33;;;;;;;;;;5092041;28;20964;-77
2023/08/30 10:16:17;;;;;;;29.40;27.20;;;;;;;;;;5092197;28;20423;-77
2023/08/30 10:18:45;;;;;;;30.37;28.17;;;;;;;;;;5092167;28;20448;-78
2023/08/30 10:21:14;;;;;;;32.20;29.90;;;;;;;;;;5091676;28;20481;-78
2023/08/30 10:23:41;;;;;;;33.07;30.47;;;;;;;;;;5092411;28;20458;-78
2023/08/30 10:26:09;;;;;;;30.33;28.33;;;;;;;;;;5092483;28;20419;-78
2023/08/30 10:28:37;;;;;;;30.80;28.53;;;;;;;;;;5093801;28;20420;-77
2023/08/30 10:31:04;;;;;;;31.80;29.50;;;;;;;;;;5091767;28;20433;-77
2023/08/30 10:33:31;;;;;;;29.70;27.33;;;;;;;;;;5093606;28;20446;-77
2023/08/30 10:36:04;;;;;;;28.33;26.43;;;;;;;;;;5093053;28;20431;-78
2023/08/30 10:38:38;;;;;;;27.50;25.77;;;;;;;;;;5093039;28;20485;-78
2023/08/30 10:41:08;;;;;;;27.90;26.10;;;;;;;;;;5092092;28;20587;-78
2023/08/30 10:43:35;;;;;;;27.07;25.07;;;;;;;;;;5092262;28;20469;-77
2023/08/30 10:46:03;;;;;;;26.90;24.77;;;;;;;;;;5091807;28;20452;-78
2023/08/30 10:48:37;;;;;;;26.13;24.13;;;;;;;;;;5091816;28;20460;-77
2023/08/30 10:51:05;;;;;;;26.80;25.10;;;;;;;;;;5091337;28;20441;-78
2023/08/30 10:53:33;;;;;;;26.40;24.70;;;;;;;;;;5091927;28;20439;-78
2023/08/30 10:56:13;;;;;;;26.83;25.20;;;;;;;;;;5091959;28;20444;-77
2023/08/30 10:58:41;;;;;;;29.00;27.07;;;;;;;;;;5094037;28;20467;-77
2023/08/30 11:01:10;;;;;;;26.87;24.67;;;;;;;;;;5094786;28;20498;-77
2023/08/30 11:03:37;;;;;;;27.90;26.00;;;;;;;;;;5095462;28;20446;-78
2023/08/30 11:06:05;;;;;;;26.13;24.27;;;;;;;;;;5095359;28;20448;-78
2023/08/30 11:08:35;;;;;;;25.40;23.80;;;;;;;;;;5095067;28;20814;-78
2023/08/30 11:11:05;;;;;;;26.57;24.70;;;;;;;;;;5095030;28;20451;-78
2023/08/30 11:13:32;;;;;;;24.93;23.33;;;;;;;;;;5095585;28;20449;-78
2023/08/30 11:16:03;;;;;;;25.50;23.90;;;;;;;;;;5096046;28;20436;-78
2023/08/30 11:18:30;;;;;;;24.27;22.77;;;;;;;;;;5095483;28;20429;-78
2023/08/30 11:21:01;;;;;;;25.33;23.73;;;;;;;;;;5094333;28;20487;-78
2023/08/30 11:23:28;;;;;;;24.00;22.50;;;;;;;;;;5095059;28;21114;-77
2023/08/30 11:25:57;;;;;;;25.67;24.07;;;;;;;;;;5094966;28;20423;-77
2023/08/30 11:28:24;;;;;;;25.50;23.90;;;;;;;;;;5094997;28;20452;-77
2023/08/30 11:30:52;;;;;;;26.37;24.77;;;;;;;;;;5094804;28;20494;-77
2023/08/30 11:33:19;;;;;;;25.23;23.73;;;;;;;;;;5095178;28;20468;-78
2023/08/30 11:35:47;;;;;;;24.97;23.47;;;;;;;;;;5093863;28;20619;-78
2023/08/30 11:38:15;;;;;;;24.43;22.73;;;;;;;;;;5095590;28;20433;-78
2023/08/30 11:40:42;;;;;;;27.13;25.33;;;;;;;;;;5094022;28;20984;-77
2023/08/30 11:43:11;;;;;;;26.27;24.40;;;;;;;;;;5095096;28;20453;-77
2023/08/30 11:45:38;;;;;;;25.63;24.03;;;;;;;;;;5095063;28;20423;-77
2023/08/30 11:48:06;;;;;;;25.30;23.63;;;;;;;;;;5095368;28;20438;-76
2023/08/30 11:50:33;;;;;;;26.07;24.30;;;;;;;;;;5094546;28;20441;-77
2023/08/30 11:53:00;;;;;;;25.77;23.80;;;;;;;;;;5094580;28;20443;-77
2023/08/30 11:55:27;;;;;;;24.87;23.27;;;;;;;;;;5094905;28;20420;-77
2023/08/30 11:57:54;;;;;;;25.20;23.70;;;;;;;;;;5094502;28;20786;-78
2023/08/30 12:00:23;;;;;;;25.57;23.90;;;;;;;;;;5093870;28;20506;-78
2023/08/30 12:02:51;;;;;;;23.43;21.93;;;;;;;;;;5094968;28;20444;-77
2023/08/30 12:05:18;;;;;;;24.60;23.10;;;;;;;;;;5094850;28;20441;-78
2023/08/30 12:07:47;;;;;;;25.23;23.53;;;;;;;;;;5094298;28;20955;-78
2023/08/30 12:10:14;;;;;;;24.63;23.13;;;;;;;;;;5093501;28;20480;-77
2023/08/30 12:12:46;;;;;;;25.60;23.73;;;;;;;;;;5094690;28;20435;-77
2023/08/30 12:15:14;;;;;;;24.93;23.40;;;;;;;;;;5094271;28;20452;-78
2023/08/30 12:17:42;;;;;;;25.13;23.47;;;;;;;;;;5094429;28;20431;-77
2023/08/30 12:20:17;;;;;;;25.77;24.10;;;;;;;;;;5093946;28;20466;-77
2023/08/30 12:22:44;;;;;;;26.20;24.60;;;;;;;;;;5093509;28;20484;-78
2023/08/30 12:25:18;;;;;;;25.10;23.60;;;;;;;;;;5094369;28;20420;-78
2023/08/30 12:27:45;;;;;;;25.20;23.57;;;;;;;;;;5093173;28;20990;-78
2023/08/30 12:30:12;;;;;;;24.90;23.30;;;;;;;;;;5094025;28;20428;-78
2023/08/30 12:32:39;;;;;;;24.37;22.97;;;;;;;;;;5094217;28;20814;-77
2023/08/30 12:35:08;;;;;;;24.70;23.20;;;;;;;;;;5094086;28;20800;-78
2023/08/30 12:37:35;;;;;;;24.73;23.23;;;;;;;;;;5093946;28;20448;-79
2023/08/30 12:40:02;;;;;;;25.73;24.03;;;;;;;;;;5093721;28;20782;-78
2023/08/30 12:42:29;;;;;;;26.30;24.60;;;;;;;;;;5093604;28;20980;-77
2023/08/30 12:44:56;;;;;;;26.67;24.77;;;;;;;;;;5093911;28;20449;-77
2023/08/30 12:47:24;;;;;;;25.30;23.70;;;;;;;;;;5094498;28;20441;-78
2023/08/30 12:49:51;;;;;;;28.53;26.60;;;;;;;;;;5093458;28;20452;-78
2023/08/30 12:52:19;;;;;;;27.73;25.80;;;;;;;;;;5094717;28;20460;-78
2023/08/30 12:54:47;;;;;;;27.67;25.80;;;;;;;;;;5094370;28;20533;-77
2023/08/30 12:57:15;;;;;;;28.63;26.67;;;;;;;;;;5094452;28;20471;-78
2023/08/30 12:59:42;;;;;;;27.23;25.27;;;;;;;;;;5093903;28;20453;-78
2023/08/30 13:02:09;;;;;;;27.70;25.90;;;;;;;;;;5094907;28;20489;-78
2023/08/30 13:04:37;;;;;;;27.70;25.90;;;;;;;;;;5094384;28;20468;-77
2023/08/30 13:07:05;;;;;;;27.33;25.53;;;;;;;;;;5094030;28;20506;-77
2023/08/30 13:09:33;;;;;;;28.70;26.77;;;;;;;;;;5093649;28;20963;-77
2023/08/30 13:12:01;;;;;;;28.70;26.73;;;;;;;;;;5093640;28;20408;-77
2023/08/30 13:14:28;;;;;;;28.03;26.10;;;;;;;;;;5093653;28;20411;-77
2023/08/30 13:16:55;;;;;;;28.67;26.67;;;;;;;;;;5093568;28;20448;-77
2023/08/30 13:19:22;;;;;;;27.80;25.70;;;;;;;;;;5093329;28;20899;-77
2023/08/30 13:21:49;;;;;;;28.43;26.50;;;;;;;;;;5093253;28;20476;-77
2023/08/30 13:24:16;;;;;;;30.13;27.93;;;;;;;;;;5094657;28;20411;-77
2023/08/30 13:26:44;;;;;;;31.20;28.77;;;;;;;;;;5093174;28;20449;-78
2023/08/30 13:29:12;;;;;;;30.83;28.77;;;;;;;;;;5096786;28;20437;-77
2023/08/30 13:31:39;;;;;;;30.37;28.23;;;;;;;;;;5096368;28;20452;-76
2023/08/30 13:34:06;;;;;;;29.70;27.70;;;;;;;;;;5097850;28;20526;-77
2023/08/30 13:36:33;;;;;;;31.47;29.07;;;;;;;;;;5096682;28;20441;-78
2023/08/30 13:39:00;;;;;;;32.70;30.30;;;;;;;;;;5096842;28;20952;-78
2023/08/30 13:41:27;;;;;;;33.97;31.40;;;;;;;;;;5098378;28;20469;-77
2023/08/30 13:43:55;;;;;;;32.83;30.60;;;;;;;;;;5095664;28;20468;-77
2023/08/30 13:46:22;;;;;;;36.30;33.70;;;;;;;;;;5091922;28;20967;-77
2023/08/30 13:48:50;;;;;;;38.17;35.57;;;;;;;;;;5093411;28;20422;-77
2023/08/30 13:51:22;;;;;;;37.83;35.03;;;;;;;;;;5093158;28;20502;-77
2023/08/30 13:53:49;;;;;;;39.43;36.10;;;;;;;;;;5093253;28;20488;-77
2023/08/30 13:56:16;;;;;;;41.07;37.90;;;;;;;;;;5094037;28;20445;-77
2023/08/30 13:58:44;;;;;;;38.53;35.70;;;;;;;;;;5093711;28;20452;-77
2023/08/30 14:01:12;;;;;;;44.43;40.60;;;;;;;;;;5093748;28;20545;-77
2023/08/30 14:03:39;;;;;;;46.33;42.20;;;;;;;;;;5093861;28;20475;-77
2023/08/30 14:06:06;;;;;;;47.13;43.13;;;;;;;;;;5093820;28;20456;-78
2023/08/30 14:08:33;;;;;;;51.33;47.10;;;;;;;;;;5093306;28;20452;-77
2023/08/30 14:11:00;;;;;;;46.23;42.43;;;;;;;;;;5094011;28;20475;-77
2023/08/30 14:13:32;;;;;;;54.80;50.13;;;;;;;;;;5093647;28;20473;-77
2023/08/30 14:15:59;;;;;;;57.07;52.47;;;;;;;;;;5093397;28;20502;-77
2023/08/30 14:18:28;;;;;;;61.67;56.40;;;;;;;;;;5095334;28;20419;-76